createdAt,value
2023-05-16T00:01:06.154Z,13.45
2023-05-16T00:03:34.704Z,13.53
2023-05-16T00:06:02.777Z,13.41
2023-05-16T00:08:30.912Z,13.25
2023-05-16T00:10:58.926Z,13.24
2023-05-16T00:13:27.342Z,13.35
2023-05-16T00:15:56.370Z,13.40
2023-05-16T00:18:27.225Z,13.35
2023-05-16T00:20:55.754Z,13.41
2023-05-16T00:23:23.658Z,13.23
2023-05-16T00:25:51.517Z,13.15
2023-05-16T00:28:19.405Z,13.15
2023-05-16T00:30:47.619Z,13.04
2023-05-16T00:33:17.280Z,12.98
2023-05-16T00:35:45.402Z,13.15
2023-05-16T00:38:13.290Z,13.16
2023-05-16T00:40:41.206Z,13.01
2023-05-16T00:43:10.904Z,13.08
2023-05-16T00:45:38.961Z,13.14
2023-05-16T00:48:07.057Z,13.05
2023-05-16T00:50:36.803Z,13.13
2023-05-16T00:53:04.816Z,12.97
2023-05-16T00:55:33.072Z,13.06
2023-05-16T00:58:02.145Z,13.11
2023-05-16T01:00:31.285Z,13.18
2023-05-16T01:03:00.689Z,12.98
2023-05-16T01:05:30.102Z,13.11
2023-05-16T01:07:58.255Z,13.04
2023-05-16T01:10:31.132Z,13.07
2023-05-16T01:13:27.659Z,13.01
2023-05-16T01:16:26.889Z,13.15
2023-05-16T01:27:39.480Z,13.15
2023-05-16T01:30:26.017Z,13.17
2023-05-16T01:32:54.161Z,13.16
2023-05-16T01:35:22.159Z,13.15
2023-05-16T01:38:11.792Z,13.18
2023-05-16T01:41:15.417Z,13.08
2023-05-16T01:43:46.748Z,13.12
2023-05-16T01:46:20.878Z,13.12
2023-05-16T01:48:48.921Z,13.16
2023-05-16T01:51:17.213Z,13.16
2023-05-16T01:53:45.674Z,13.01
2023-05-16T01:56:17.416Z,13.06
2023-05-16T01:58:48.576Z,13.05
2023-05-16T02:01:16.492Z,13.08
2023-05-16T02:03:44.577Z,13.10
2023-05-16T02:06:18.841Z,13.06
2023-05-16T02:08:46.937Z,13.05
2023-05-16T02:11:14.802Z,12.98
2023-05-16T02:13:43.255Z,12.81
2023-05-16T02:16:11.953Z,12.57
2023-05-16T02:18:39.938Z,12.76
2023-05-16T02:21:07.817Z,12.63
2023-05-16T02:23:37.444Z,12.66
2023-05-16T02:26:05.760Z,12.65
2023-05-16T02:28:33.626Z,12.65
2023-05-16T02:31:01.972Z,12.62
2023-05-16T02:33:30.763Z,12.61
2023-05-16T02:35:58.794Z,12.39
2023-05-16T02:38:27.544Z,12.36
2023-05-16T02:40:56.899Z,12.57
2023-05-16T02:43:24.723Z,12.49
2023-05-16T02:45:53.343Z,12.63
2023-05-16T02:48:21.301Z,12.72
2023-05-16T02:50:49.741Z,12.78
2023-05-16T02:54:24.194Z,12.75
2023-05-16T02:56:52.250Z,12.65
2023-05-16T02:59:20.789Z,12.52
2023-05-16T03:01:48.762Z,12.33
2023-05-16T03:04:16.994Z,12.51
2023-05-16T03:06:45.047Z,12.55
2023-05-16T03:09:12.877Z,12.57
2023-05-16T03:11:40.887Z,12.62
2023-05-16T03:14:09.590Z,12.70
2023-05-16T03:16:39.064Z,12.64
2023-05-16T03:19:07.349Z,12.75
2023-05-16T03:21:35.388Z,12.81
2023-05-16T03:24:04.700Z,12.71
2023-05-16T03:26:32.681Z,12.72
2023-05-16T03:29:00.657Z,12.83
2023-05-16T03:31:28.744Z,12.81
2023-05-16T03:33:56.863Z,12.82
2023-05-16T03:36:24.890Z,12.74
2023-05-16T03:38:52.929Z,12.86
2023-05-16T03:41:21.572Z,12.87
2023-05-16T03:43:49.464Z,12.86
2023-05-16T03:46:17.531Z,12.82
2023-05-16T03:48:45.471Z,12.88
2023-05-16T03:51:13.460Z,12.86
2023-05-16T03:53:42.231Z,12.84
2023-05-16T03:56:10.157Z,12.86
2023-05-16T03:58:38.355Z,12.92
2023-05-16T04:01:06.439Z,12.94
2023-05-16T04:03:34.366Z,12.78
2023-05-16T04:06:02.424Z,12.94
2023-05-16T04:08:30.227Z,12.93
2023-05-16T04:10:58.124Z,13.05
2023-05-16T04:13:26.243Z,13.06
2023-05-16T04:15:54.415Z,13.10
2023-05-16T04:18:22.352Z,13.12
2023-05-16T04:20:50.505Z,13.05
2023-05-16T04:23:18.766Z,13.01
2023-05-16T04:25:46.894Z,12.96
2023-05-16T04:28:15.118Z,12.92
2023-05-16T04:30:43.046Z,12.97
2023-05-16T04:33:11.173Z,12.98
2023-05-16T04:35:40.044Z,13.08
2023-05-16T04:38:08.815Z,13.01
2023-05-16T04:40:36.695Z,12.92
2023-05-16T04:43:04.775Z,13.09
2023-05-16T04:45:32.650Z,13.10
2023-05-16T04:48:01.733Z,13.12
2023-05-16T04:50:30.237Z,13.11
2023-05-16T04:52:58.322Z,13.07
2023-05-16T04:55:26.801Z,13.14
2023-05-16T04:57:55.080Z,13.15
2023-05-16T05:00:23.168Z,13.05
2023-05-16T05:02:51.142Z,13.04
2023-05-16T05:05:19.284Z,13.06
2023-05-16T05:07:47.734Z,13.05
2023-05-16T05:10:15.645Z,12.98
2023-05-16T05:12:44.024Z,13.00
2023-05-16T05:15:12.036Z,12.96
2023-05-16T05:17:40.177Z,12.86
2023-05-16T05:20:08.874Z,12.92
2023-05-16T05:22:36.912Z,12.95
2023-05-16T05:25:06.426Z,12.92
2023-05-16T05:27:34.234Z,12.95
2023-05-16T05:30:03.154Z,13.00
2023-05-16T05:32:31.705Z,12.99
2023-05-16T05:34:59.780Z,13.06
2023-05-16T05:37:28.064Z,13.15
2023-05-16T05:39:57.073Z,13.26
2023-05-16T05:42:24.981Z,13.25
2023-05-16T05:44:52.906Z,13.30
2023-05-16T05:47:22.020Z,13.25
2023-05-16T05:49:51.040Z,13.26
2023-05-16T05:52:19.062Z,13.30
2023-05-16T05:54:48.648Z,13.27
2023-05-16T05:57:17.511Z,13.28
2023-05-16T05:59:45.773Z,13.26
2023-05-16T06:02:14.469Z,13.29
2023-05-16T06:04:43.056Z,13.30
2023-05-16T06:07:11.096Z,13.30
2023-05-16T06:09:39.206Z,13.30
2023-05-16T06:12:07.626Z,13.36
2023-05-16T06:14:35.649Z,13.38
2023-05-16T06:17:03.843Z,13.38
2023-05-16T06:19:31.876Z,13.42
2023-05-16T06:21:59.727Z,13.39
2023-05-16T06:24:30.051Z,13.44
2023-05-16T06:26:58.299Z,13.43
2023-05-16T06:29:26.241Z,13.57
2023-05-16T06:31:54.401Z,13.51
2023-05-16T06:34:28.539Z,13.56
2023-05-16T06:36:56.643Z,13.61
2023-05-16T06:39:24.571Z,13.67
2023-05-16T06:41:56.215Z,13.70
2023-05-16T06:44:24.714Z,13.73
2023-05-16T06:46:53.364Z,13.61
2023-05-16T06:49:21.584Z,13.71
2023-05-16T06:51:49.658Z,13.67
2023-05-16T06:54:17.592Z,13.59
2023-05-16T06:56:46.123Z,13.64
2023-05-16T06:59:14.232Z,13.79
2023-05-16T07:01:42.760Z,13.81
2023-05-16T07:04:11.001Z,13.63
2023-05-16T07:06:39.128Z,13.84
2023-05-16T07:09:07.629Z,13.86
2023-05-16T07:11:35.773Z,13.88
2023-05-16T07:14:03.759Z,13.87
2023-05-16T07:16:31.902Z,14.03
2023-05-16T07:19:00.019Z,14.01
2023-05-16T07:21:28.321Z,14.15
2023-05-16T07:23:56.357Z,14.22
2023-05-16T07:26:24.398Z,14.26
2023-05-16T07:28:52.577Z,14.29
2023-05-16T07:31:21.123Z,14.12
2023-05-16T07:33:49.845Z,14.17
2023-05-16T07:36:18.138Z,14.23
2023-05-16T07:38:46.482Z,14.28
2023-05-16T07:41:14.624Z,14.29
2023-05-16T07:43:42.783Z,14.41
2023-05-16T07:46:11.959Z,14.55
2023-05-16T07:48:40.282Z,14.63
2023-05-16T07:51:08.381Z,14.77
2023-05-16T07:53:36.903Z,14.99
2023-05-16T07:56:05.611Z,14.80
2023-05-16T07:58:33.867Z,14.66
2023-05-16T08:01:02.044Z,14.98
2023-05-16T08:03:30.635Z,14.95
2023-05-16T08:05:58.638Z,15.06
2023-05-16T08:08:26.842Z,15.16
2023-05-16T08:10:54.752Z,15.40
2023-05-16T08:13:22.943Z,15.43
2023-05-16T08:15:51.153Z,15.40
2023-05-16T08:18:22.077Z,15.40
2023-05-16T08:20:51.601Z,15.46
2023-05-16T08:23:19.563Z,15.49
2023-05-16T08:25:47.837Z,15.51
2023-05-16T08:28:15.910Z,15.44
2023-05-16T08:30:45.214Z,15.42
2023-05-16T08:33:15.451Z,15.40
2023-05-16T08:35:44.447Z,15.42
2023-05-16T08:38:12.553Z,15.49
2023-05-16T08:40:41.341Z,15.59
2023-05-16T08:43:09.313Z,15.63
2023-05-16T08:45:37.319Z,15.70
2023-05-16T08:48:08.698Z,15.73
2023-05-16T08:50:38.599Z,15.72
2023-05-16T08:53:09.935Z,16.01
2023-05-16T08:55:41.713Z,16.21
2023-05-16T08:58:10.180Z,16.40
2023-05-16T09:00:40.009Z,16.43
2023-05-16T09:03:08.557Z,16.65
2023-05-16T09:05:36.600Z,16.51
2023-05-16T09:08:04.630Z,16.61
2023-05-16T09:10:32.788Z,16.65
2023-05-16T09:13:00.960Z,16.41
2023-05-16T09:15:33.535Z,16.30
2023-05-16T09:18:03.428Z,16.24
2023-05-16T09:20:31.902Z,16.12
2023-05-16T09:23:00.919Z,16.19
2023-05-16T09:25:32.688Z,16.24
2023-05-16T09:28:02.838Z,16.22
2023-05-16T09:30:37.427Z,16.15
2023-05-16T09:33:07.503Z,16.05
2023-05-16T09:35:44.918Z,16.11
2023-05-16T09:38:17.818Z,16.05
2023-05-16T09:40:46.668Z,16.05
2023-05-16T09:43:18.044Z,16.07
2023-05-16T09:45:48.529Z,16.22
2023-05-16T09:48:18.353Z,16.43
2023-05-16T09:50:53.240Z,16.61
2023-05-16T09:53:29.174Z,16.78
2023-05-16T09:56:26.953Z,16.81
2023-05-16T09:58:55.064Z,16.97
2023-05-16T10:01:23.659Z,17.20
2023-05-16T10:03:52.942Z,17.04
2023-05-16T10:06:21.468Z,17.33
2023-05-16T10:08:51.142Z,17.53
2023-05-16T10:11:19.935Z,17.53
2023-05-16T10:13:53.578Z,17.65
2023-05-16T10:16:24.241Z,17.88
2023-05-16T10:18:53.368Z,17.91
2023-05-16T10:21:23.936Z,17.63
2023-05-16T10:23:52.972Z,17.74
2023-05-16T10:26:22.835Z,17.65
2023-05-16T10:28:52.073Z,17.29
2023-05-16T10:31:21.193Z,17.16
2023-05-16T10:33:49.410Z,17.11
2023-05-16T10:36:18.646Z,17.07
2023-05-16T10:38:48.195Z,17.19
2023-05-16T10:41:17.471Z,17.33
2023-05-16T10:43:57.097Z,17.57
2023-05-16T10:46:26.976Z,17.72
2023-05-16T10:48:56.546Z,17.85
2023-05-16T10:51:39.344Z,17.73
2023-05-16T10:54:14.057Z,17.73
2023-05-16T10:56:43.646Z,17.95
2023-05-16T10:59:25.744Z,17.86
2023-05-16T11:01:56.091Z,17.84
2023-05-16T11:04:24.511Z,17.97
2023-05-16T11:06:53.928Z,18.04
2023-05-16T11:09:24.567Z,18.08
2023-05-16T11:11:52.860Z,18.21
2023-05-16T11:14:24.590Z,18.28
2023-05-16T11:17:14.200Z,18.25
2023-05-16T11:19:43.919Z,18.10
2023-05-16T11:22:22.040Z,18.28
2023-05-16T11:24:52.555Z,18.30
2023-05-16T11:27:32.728Z,18.49
2023-05-16T11:30:13.516Z,18.72
2023-05-16T11:32:46.642Z,18.80
2023-05-16T11:35:17.341Z,18.90
2023-05-16T11:37:47.286Z,18.94
2023-05-16T11:40:17.458Z,18.80
2023-05-16T11:42:48.118Z,18.73
2023-05-16T11:45:18.275Z,19.04
2023-05-16T11:47:48.629Z,19.11
2023-05-16T11:50:22.413Z,19.06
2023-05-16T11:52:57.739Z,18.96
2023-05-16T11:55:41.407Z,18.74
2023-05-16T11:58:12.589Z,18.94
2023-05-16T12:00:50.181Z,19.05
2023-05-16T12:03:20.820Z,19.37
2023-05-16T12:05:54.044Z,19.43
2023-05-16T12:08:23.103Z,19.71
2023-05-16T12:10:53.308Z,19.78
2023-05-16T12:13:24.121Z,19.70
2023-05-16T12:15:56.065Z,19.69
2023-05-16T12:18:25.193Z,19.42
2023-05-16T12:20:53.994Z,19.30
2023-05-16T12:23:22.189Z,19.36
2023-05-16T12:25:50.284Z,19.32
2023-05-16T12:28:18.384Z,19.22
2023-05-16T12:30:48.393Z,19.13
2023-05-16T12:33:17.837Z,19.26
2023-05-16T12:35:48.064Z,19.16
2023-05-16T12:38:17.770Z,19.40
2023-05-16T12:40:47.029Z,19.58
2023-05-16T12:43:21.435Z,19.67
2023-05-16T12:45:57.598Z,19.78
2023-05-16T12:48:34.729Z,19.76
2023-05-16T12:51:16.581Z,19.73
2023-05-16T12:54:01.318Z,19.55
2023-05-16T12:56:41.379Z,19.74
2023-05-16T12:59:09.920Z,19.79
2023-05-16T13:01:38.756Z,19.78
2023-05-16T13:04:07.242Z,19.63
2023-05-16T13:06:55.430Z,19.61
2023-05-16T13:09:24.651Z,19.28
2023-05-16T13:11:53.783Z,19.24
2023-05-16T13:14:21.928Z,18.96
2023-05-16T13:16:50.217Z,18.99
2023-05-16T13:19:18.400Z,18.93
2023-05-16T13:21:46.643Z,18.55
2023-05-16T13:24:14.661Z,18.43
2023-05-16T13:26:42.769Z,18.12
2023-05-16T13:29:12.091Z,18.06
2023-05-16T13:31:40.383Z,18.34
2023-05-16T13:34:08.450Z,18.38
2023-05-16T13:36:52.288Z,18.47
2023-05-16T13:39:22.551Z,18.35
2023-05-16T13:41:51.006Z,18.14
2023-05-16T13:44:19.168Z,18.00
2023-05-16T13:46:47.351Z,18.14
2023-05-16T13:49:15.230Z,18.12
2023-05-16T13:51:43.859Z,18.22
2023-05-16T13:54:11.706Z,18.27
2023-05-16T13:56:39.868Z,18.21
2023-05-16T13:59:08.675Z,18.22
2023-05-16T14:01:38.353Z,18.24
2023-05-16T14:04:06.519Z,18.24
2023-05-16T14:06:34.660Z,18.21
2023-05-16T14:09:03.569Z,18.20
2023-05-16T14:11:31.593Z,18.21
2023-05-16T14:14:00.065Z,18.31
2023-05-16T14:16:28.250Z,18.32
2023-05-16T14:18:56.471Z,18.28
2023-05-16T14:21:25.027Z,18.32
2023-05-16T14:23:53.893Z,18.19
2023-05-16T14:26:25.757Z,18.29
2023-05-16T14:28:54.347Z,18.14
2023-05-16T14:31:23.644Z,18.07
2023-05-16T14:33:51.894Z,18.13
2023-05-16T14:36:20.718Z,18.17
2023-05-16T14:38:49.575Z,17.70
2023-05-16T14:41:18.185Z,17.86
2023-05-16T14:43:47.354Z,18.05
2023-05-16T14:46:15.620Z,18.01
2023-05-16T14:48:43.629Z,18.09
2023-05-16T14:51:12.347Z,18.24
2023-05-16T14:53:40.531Z,18.34
2023-05-16T14:56:09.011Z,18.34
2023-05-16T14:58:37.506Z,18.33
2023-05-16T15:01:06.308Z,18.43
2023-05-16T15:03:46.965Z,18.44
2023-05-16T15:06:22.785Z,18.55
2023-05-16T15:08:51.153Z,18.56
2023-05-16T15:11:19.961Z,18.64
2023-05-16T15:13:49.146Z,18.67
2023-05-16T15:16:17.976Z,18.58
2023-05-16T15:18:47.349Z,18.54
2023-05-16T15:21:16.019Z,18.59
2023-05-16T15:23:44.953Z,18.60
2023-05-16T15:26:13.415Z,18.32
2023-05-16T15:28:41.825Z,18.38
2023-05-16T15:31:10.877Z,18.31
2023-05-16T15:33:39.236Z,18.50
2023-05-16T15:36:07.873Z,18.47
2023-05-16T15:38:36.929Z,18.45
2023-05-16T15:41:18.758Z,18.40
2023-05-16T15:43:55.079Z,18.39
2023-05-16T15:46:23.665Z,18.31
2023-05-16T15:48:52.894Z,18.29
2023-05-16T15:51:21.535Z,18.30
2023-05-16T15:53:50.257Z,18.04
2023-05-16T15:56:18.811Z,17.81
2023-05-16T15:58:47.124Z,17.99
2023-05-16T16:01:15.502Z,17.82
2023-05-16T16:03:44.375Z,17.71
2023-05-16T16:06:12.789Z,17.66
2023-05-16T16:08:41.257Z,17.38
2023-05-16T16:11:09.976Z,17.39
2023-05-16T16:13:38.731Z,17.31
2023-05-16T16:16:07.579Z,17.14
2023-05-16T16:18:35.769Z,17.23
2023-05-16T16:21:04.546Z,17.19
2023-05-16T16:23:33.407Z,17.22
2023-05-16T16:26:02.120Z,17.32
2023-05-16T16:28:30.771Z,17.32
2023-05-16T16:30:59.462Z,17.34
2023-05-16T16:33:27.954Z,17.30
2023-05-16T16:35:56.451Z,17.25
2023-05-16T16:38:27.006Z,17.23
2023-05-16T16:40:55.667Z,17.28
2023-05-16T16:43:24.173Z,17.29
2023-05-16T16:45:53.096Z,17.30
2023-05-16T16:48:21.565Z,17.39
2023-05-16T16:50:50.171Z,17.29
2023-05-16T16:53:20.057Z,17.24
2023-05-16T16:55:48.635Z,17.01
2023-05-16T16:58:17.210Z,16.85
2023-05-16T17:00:45.985Z,16.63
2023-05-16T17:03:14.554Z,16.79
2023-05-16T17:05:43.458Z,16.86
2023-05-16T17:08:12.532Z,16.90
2023-05-16T17:10:41.416Z,16.77
2023-05-16T17:13:12.679Z,16.61
2023-05-16T17:15:41.848Z,16.62
2023-05-16T17:18:10.561Z,16.78
2023-05-16T17:20:39.215Z,16.85
2023-05-16T17:23:07.621Z,16.87
2023-05-16T17:25:35.951Z,16.84
2023-05-16T17:28:04.326Z,16.79
2023-05-16T17:30:32.975Z,16.44
2023-05-16T17:33:01.580Z,16.21
2023-05-16T17:35:30.073Z,16.08
2023-05-16T17:37:59.555Z,16.09
2023-05-16T17:40:28.127Z,15.82
2023-05-16T17:42:56.734Z,15.74
2023-05-16T17:45:28.943Z,15.75
2023-05-16T17:47:59.594Z,15.79
2023-05-16T17:50:29.886Z,15.74
2023-05-16T17:52:59.248Z,15.78
2023-05-16T17:55:28.187Z,15.76
2023-05-16T17:57:56.912Z,15.80
2023-05-16T18:00:25.493Z,15.65
2023-05-16T18:02:54.464Z,15.59
2023-05-16T18:05:23.673Z,15.56
2023-05-16T18:07:52.573Z,15.68
2023-05-16T18:10:21.478Z,15.65
2023-05-16T18:12:49.736Z,15.65
2023-05-16T18:15:19.005Z,15.71
2023-05-16T18:17:47.367Z,15.77
2023-05-16T18:20:16.044Z,15.70
2023-05-16T18:22:44.324Z,15.45
2023-05-16T18:25:13.018Z,15.66
2023-05-16T18:27:41.960Z,15.59
2023-05-16T18:30:13.141Z,15.45
2023-05-16T18:32:41.984Z,15.40
2023-05-16T18:35:10.924Z,15.37
2023-05-16T18:37:39.249Z,15.34
2023-05-16T18:40:08.600Z,15.48
2023-05-16T18:42:36.928Z,15.38
2023-05-16T18:45:05.644Z,15.48
2023-05-16T18:47:34.515Z,15.53
2023-05-16T18:50:03.888Z,15.55
2023-05-16T18:52:34.719Z,15.61
2023-05-16T18:55:03.296Z,15.50
2023-05-16T18:57:31.820Z,15.48
2023-05-16T19:00:01.277Z,15.51
2023-05-16T19:02:41.662Z,15.58
2023-05-16T19:05:11.786Z,15.68
2023-05-16T19:07:41.284Z,15.74
2023-05-16T19:10:10.252Z,15.69
2023-05-16T19:12:38.875Z,15.76
2023-05-16T19:15:08.173Z,15.67
2023-05-16T19:17:36.823Z,15.56
2023-05-16T19:20:07.056Z,15.71
2023-05-16T19:22:36.559Z,15.77
2023-05-16T19:25:06.259Z,15.78
2023-05-16T19:27:34.704Z,15.74
2023-05-16T19:30:03.128Z,15.80
2023-05-16T19:32:32.013Z,15.78
2023-05-16T19:35:00.703Z,15.75
2023-05-16T19:37:29.366Z,15.78
2023-05-16T19:39:57.872Z,15.81
2023-05-16T19:42:26.481Z,15.78
2023-05-16T19:44:55.055Z,15.58
2023-05-16T19:47:23.353Z,15.58
2023-05-16T19:49:51.988Z,15.64
2023-05-16T19:52:20.547Z,15.65
2023-05-16T19:54:54.263Z,15.58
2023-05-16T19:57:22.959Z,15.49
2023-05-16T19:59:51.822Z,15.61
2023-05-16T20:02:21.304Z,15.62
2023-05-16T20:04:52.508Z,15.67
2023-05-16T20:07:21.131Z,15.58
2023-05-16T20:09:49.690Z,15.68
2023-05-16T20:12:18.363Z,15.73
2023-05-16T20:14:47.038Z,15.75
2023-05-16T20:17:18.512Z,15.47
2023-05-16T20:19:47.431Z,15.49
2023-05-16T20:22:15.682Z,15.56
2023-05-16T20:24:44.332Z,15.60
2023-05-16T20:27:12.911Z,15.38
2023-05-16T20:29:41.057Z,15.50
2023-05-16T20:32:09.179Z,15.26
2023-05-16T20:34:39.134Z,15.24
2023-05-16T20:37:08.442Z,15.28
2023-05-16T20:39:36.597Z,15.29
2023-05-16T20:42:13.673Z,15.34
2023-05-16T20:44:42.045Z,15.40
2023-05-16T20:47:10.505Z,15.27
2023-05-16T20:49:40.091Z,15.34
2023-05-16T20:52:09.010Z,15.27
2023-05-16T20:54:37.374Z,15.18
2023-05-16T20:57:05.978Z,15.14
2023-05-16T20:59:34.482Z,14.68
2023-05-16T21:02:06.014Z,14.89
2023-05-16T21:04:34.636Z,14.72
2023-05-16T21:07:04.253Z,14.79
2023-05-16T21:09:34.262Z,14.93
2023-05-16T21:12:02.554Z,14.82
2023-05-16T21:14:30.722Z,14.90
2023-05-16T21:16:58.730Z,14.71
2023-05-16T21:19:26.763Z,14.93
2023-05-16T21:21:54.886Z,14.99
2023-05-16T21:24:22.934Z,15.04
2023-05-16T21:26:50.903Z,15.08
2023-05-16T21:29:18.809Z,15.10
2023-05-16T21:31:46.896Z,15.07
2023-05-16T21:34:15.026Z,15.06
2023-05-16T21:36:42.974Z,15.08
2023-05-16T21:39:11.515Z,14.77
2023-05-16T21:41:39.484Z,14.77
2023-05-16T21:44:07.517Z,14.80
2023-05-16T21:46:35.461Z,14.62
2023-05-16T21:49:03.510Z,14.60
2023-05-16T21:51:31.860Z,14.47
2023-05-16T21:53:59.938Z,14.63
2023-05-16T21:56:28.192Z,14.68
2023-05-16T21:58:56.261Z,14.61
2023-05-16T22:01:26.612Z,14.56
2023-05-16T22:03:58.096Z,14.50
2023-05-16T22:06:26.397Z,14.48
2023-05-16T22:08:55.492Z,14.54
2023-05-16T22:11:23.489Z,14.62
2023-05-16T22:13:51.574Z,14.67
2023-05-16T22:16:19.674Z,14.41
2023-05-16T22:18:47.765Z,14.16
2023-05-16T22:21:16.592Z,14.40
2023-05-16T22:23:44.656Z,14.37
2023-05-16T22:26:12.753Z,14.48
2023-05-16T22:28:40.889Z,14.46
2023-05-16T22:31:08.870Z,14.38
2023-05-16T22:33:37.050Z,14.49
2023-05-16T22:36:05.378Z,14.42
2023-05-16T22:38:33.361Z,14.50
2023-05-16T22:41:01.323Z,14.15
2023-05-16T22:43:29.304Z,14.39
2023-05-16T22:46:06.359Z,14.49
2023-05-16T22:48:34.668Z,14.41
2023-05-16T22:51:02.897Z,14.54
2023-05-16T22:53:32.425Z,14.36
2023-05-16T22:56:00.941Z,14.34
2023-05-16T22:58:28.947Z,14.45
2023-05-16T23:00:58.293Z,14.42
2023-05-16T23:03:27.902Z,14.49
2023-05-16T23:05:56.398Z,14.47
2023-05-16T23:08:24.473Z,14.49
2023-05-16T23:10:52.341Z,14.53
2023-05-16T23:13:20.319Z,14.45
2023-05-16T23:15:48.252Z,14.31
2023-05-16T23:18:16.376Z,14.35
2023-05-16T23:20:44.519Z,14.28
2023-05-16T23:23:12.557Z,14.35
2023-05-16T23:25:41.066Z,14.39
2023-05-16T23:28:09.204Z,14.41
2023-05-16T23:30:37.384Z,14.42
2023-05-16T23:33:05.370Z,14.40
2023-05-16T23:35:33.473Z,14.35
2023-05-16T23:38:01.697Z,14.34
2023-05-16T23:40:49.189Z,14.26
2023-05-16T23:43:17.404Z,14.28
2023-05-16T23:45:45.426Z,14.31
2023-05-16T23:48:13.529Z,14.28
2023-05-16T23:50:41.513Z,14.32
2023-05-16T23:53:09.509Z,14.23
2023-05-16T23:55:37.589Z,14.24
2023-05-16T23:58:05.510Z,14.25
